Time;durP1;ratioP1;P1;durP2;ratioP2;P2;SDS_P1;SDS_P2;PMS_P1;PMS_P2;Temp;Humidity;BMP_temperature;BMP_pressure;BME280_temperature;BME280_humidity;BME280_pressure;Samples;Min_cycle;Max_cycle;Signal;HPM_P1;HPM_P2
2023/09/25 00:00:54;;;;;;;11.13;6.10;;;;;;;;;;6285299;28;20264;-64
2023/09/25 00:04:11;;;;;;;10.77;5.50;;;;;;;;;;6269702;28;20525;-63
2023/09/25 00:07:12;;;;;;;10.10;5.20;;;;;;;;;;6269078;28;20052;-64
2023/09/25 00:10:12;;;;;;;9.50;5.30;;;;;;;;;;6286596;28;20053;-63
2023/09/25 00:13:13;;;;;;;13.70;6.20;;;;;;;;;;6287001;28;20048;-64
2023/09/25 00:16:14;;;;;;;11.68;5.75;;;;;;;;;;6287304;28;20035;-64
2023/09/25 00:19:15;;;;;;;9.57;5.70;;;;;;;;;;6286650;28;20067;-63
2023/09/25 00:22:16;;;;;;;11.50;5.10;;;;;;;;;;6268595;28;20107;-63
2023/09/25 00:25:20;;;;;;;11.32;5.55;;;;;;;;;;6285088;28;20415;-63
2023/09/25 00:28:21;;;;;;;9.25;5.07;;;;;;;;;;6285170;28;20109;-66
2023/09/25 00:31:22;;;;;;;11.27;5.20;;;;;;;;;;6273762;28;20431;-64
2023/09/25 00:34:22;;;;;;;12.82;5.38;;;;;;;;;;6287120;28;20051;-64
2023/09/25 00:37:23;;;;;;;11.35;5.15;;;;;;;;;;6286578;28;20382;-63
2023/09/25 00:40:24;;;;;;;9.73;5.10;;;;;;;;;;6286502;28;20051;-64
2023/09/25 00:43:25;;;;;;;9.02;5.22;;;;;;;;;;6284559;28;20036;-64
2023/09/25 00:46:25;;;;;;;7.72;5.00;;;;;;;;;;6283751;28;20045;-63
2023/09/25 00:49:27;;;;;;;11.05;5.75;;;;;;;;;;6285953;28;20048;-63
2023/09/25 00:52:27;;;;;;;10.75;5.78;;;;;;;;;;6288294;28;20438;-63
2023/09/25 00:55:28;;;;;;;9.68;5.47;;;;;;;;;;6289684;28;20055;-64
2023/09/25 00:58:29;;;;;;;9.98;5.35;;;;;;;;;;6290975;28;20044;-65
2023/09/25 01:01:30;;;;;;;7.15;5.10;;;;;;;;;;6290906;28;20040;-68
2023/09/25 01:04:31;;;;;;;9.68;5.28;;;;;;;;;;6291427;28;20040;-67
2023/09/25 01:07:32;;;;;;;8.50;5.20;;;;;;;;;;6289829;28;20530;-64
2023/09/25 01:10:32;;;;;;;9.65;5.30;;;;;;;;;;6289744;28;20048;-65
2023/09/25 01:13:33;;;;;;;9.70;5.50;;;;;;;;;;6290163;28;20044;-64
2023/09/25 01:16:35;;;;;;;9.32;5.72;;;;;;;;;;6292600;28;20125;-64
2023/09/25 01:19:35;;;;;;;9.98;5.20;;;;;;;;;;6287812;28;20051;-64
2023/09/25 01:22:36;;;;;;;12.23;5.35;;;;;;;;;;6288883;28;20032;-65
2023/09/25 01:25:37;;;;;;;9.40;5.50;;;;;;;;;;6291111;28;20048;-66
2023/09/25 01:28:37;;;;;;;8.85;5.57;;;;;;;;;;6291283;28;20051;-65
2023/09/25 01:31:38;;;;;;;11.63;5.15;;;;;;;;;;6289405;28;20040;-66
2023/09/25 01:34:39;;;;;;;7.72;4.90;;;;;;;;;;6288770;28;20043;-66
2023/09/25 01:37:40;;;;;;;9.30;5.63;;;;;;;;;;6290064;28;20052;-66
2023/09/25 01:40:41;;;;;;;9.05;5.78;;;;;;;;;;6288680;28;20500;-66
2023/09/25 01:43:43;;;;;;;12.63;5.35;;;;;;;;;;6290497;28;20044;-67
2023/09/25 01:46:43;;;;;;;8.77;5.25;;;;;;;;;;6289106;28;20044;-66
2023/09/25 01:49:44;;;;;;;12.68;5.05;;;;;;;;;;6286578;28;20048;-66
2023/09/25 01:52:47;;;;;;;10.55;5.07;;;;;;;;;;6290427;28;20040;-66
2023/09/25 01:55:48;;;;;;;9.32;5.35;;;;;;;;;;6290021;28;20495;-66
2023/09/25 01:58:49;;;;;;;9.32;5.28;;;;;;;;;;6289374;28;20052;-66
2023/09/25 02:01:49;;;;;;;10.43;5.30;;;;;;;;;;6289713;28;20127;-66
2023/09/25 02:04:50;;;;;;;9.25;5.30;;;;;;;;;;6290282;28;20052;-65
2023/09/25 02:07:50;;;;;;;9.25;5.25;;;;;;;;;;6290121;28;20507;-66
2023/09/25 02:10:51;;;;;;;8.57;5.22;;;;;;;;;;6288312;28;20045;-66
2023/09/25 02:13:51;;;;;;;10.32;5.47;;;;;;;;;;6287816;28;20530;-66
2023/09/25 02:16:52;;;;;;;9.52;5.68;;;;;;;;;;6289570;28;20055;-66
2023/09/25 02:19:54;;;;;;;9.05;5.68;;;;;;;;;;6288963;28;20079;-66
2023/09/25 02:22:54;;;;;;;8.75;5.55;;;;;;;;;;6287422;28;20083;-66
2023/09/25 02:25:55;;;;;;;10.38;5.47;;;;;;;;;;6289519;28;20623;-66
2023/09/25 02:28:55;;;;;;;10.18;5.72;;;;;;;;;;6288562;28;20040;-64
2023/09/25 02:31:56;;;;;;;9.88;5.90;;;;;;;;;;6288306;28;20051;-65
2023/09/25 02:34:57;;;;;;;11.13;5.75;;;;;;;;;;6288399;28;20087;-65
2023/09/25 02:37:58;;;;;;;8.82;5.63;;;;;;;;;;6282379;28;20436;-65
2023/09/25 02:40:58;;;;;;;9.30;5.63;;;;;;;;;;6287153;28;20041;-65
2023/09/25 02:43:59;;;;;;;12.05;5.20;;;;;;;;;;6268191;28;20043;-65
2023/09/25 02:47:00;;;;;;;8.52;5.97;;;;;;;;;;6286423;28;20396;-68
2023/09/25 02:50:01;;;;;;;11.10;5.88;;;;;;;;;;6285285;28;20759;-65
2023/09/25 02:53:01;;;;;;;7.85;5.38;;;;;;;;;;6287875;28;20051;-64
2023/09/25 02:56:02;;;;;;;9.65;5.88;;;;;;;;;;6288227;28;20045;-65
2023/09/25 02:59:02;;;;;;;9.05;5.63;;;;;;;;;;6286803;28;20048;-65
2023/09/25 03:02:03;;;;;;;8.75;6.00;;;;;;;;;;6287686;28;20584;-64
2023/09/25 03:05:08;;;;;;;8.65;5.40;;;;;;;;;;6287985;28;20063;-66
2023/09/25 03:08:08;;;;;;;9.55;5.95;;;;;;;;;;6287693;28;20059;-65
2023/09/25 03:11:09;;;;;;;9.20;6.20;;;;;;;;;;6287278;28;20057;-64
2023/09/25 03:14:10;;;;;;;10.63;5.65;;;;;;;;;;6287864;28;20094;-65
2023/09/25 03:17:10;;;;;;;11.15;6.13;;;;;;;;;;6286281;28;20454;-64
2023/09/25 03:20:17;;;;;;;8.10;5.75;;;;;;;;;;6286934;28;20055;-66
2023/09/25 03:23:17;;;;;;;12.65;6.50;;;;;;;;;;6287526;28;20457;-65
2023/09/25 03:26:19;;;;;;;12.45;5.97;;;;;;;;;;6286149;28;20040;-64
2023/09/25 03:29:20;;;;;;;11.80;6.30;;;;;;;;;;6286932;28;20044;-65
2023/09/25 03:32:21;;;;;;;10.73;6.45;;;;;;;;;;6269748;28;20557;-66
2023/09/25 03:35:22;;;;;;;12.10;6.68;;;;;;;;;;6269612;28;20490;-65
2023/09/25 03:38:23;;;;;;;12.80;6.70;;;;;;;;;;6286594;28;20040;-64
2023/09/25 03:41:23;;;;;;;10.75;6.43;;;;;;;;;;6287009;28;20054;-65
2023/09/25 03:44:25;;;;;;;12.73;6.80;;;;;;;;;;6288340;28;20102;-66
2023/09/25 03:47:25;;;;;;;11.23;6.88;;;;;;;;;;6287398;28;20056;-64
2023/09/25 03:50:26;;;;;;;13.02;7.40;;;;;;;;;;6286956;28;20510;-65
2023/09/25 03:53:26;;;;;;;10.13;6.40;;;;;;;;;;6287535;28;20040;-64
2023/09/25 03:56:29;;;;;;;12.40;7.55;;;;;;;;;;6287687;28;20139;-65
2023/09/25 03:59:30;;;;;;;;;;;;;;;;;;6286315;28;20040;-65
2023/09/25 04:02:31;;;;;;;12.23;7.18;;;;;;;;;;6285239;28;19921;-66
2023/09/25 04:05:33;;;;;;;11.50;6.97;;;;;;;;;;6256267;28;20043;-65
2023/09/25 04:08:33;;;;;;;;;;;;;;;;;;6289952;28;20396;-64
2023/09/25 04:11:34;;;;;;;12.15;6.80;;;;;;;;;;6285370;28;19928;-65
2023/09/25 04:14:35;;;;;;;11.88;7.05;;;;;;;;;;6286370;28;20132;-65
2023/09/25 04:17:36;;;;;;;15.07;7.25;;;;;;;;;;6288916;28;20051;-65
2023/09/25 04:20:38;;;;;;;13.27;7.60;;;;;;;;;;6285106;28;20422;-65
2023/09/25 04:23:39;;;;;;;13.80;7.75;;;;;;;;;;6284735;28;20135;-66
2023/09/25 04:26:40;;;;;;;14.30;7.60;;;;;;;;;;6288239;28;20135;-66
2023/09/25 04:29:41;;;;;;;12.20;7.80;;;;;;;;;;6289139;28;20044;-65
2023/09/25 04:32:43;;;;;;;12.85;8.15;;;;;;;;;;6290571;28;20048;-67
2023/09/25 04:35:43;;;;;;;14.77;8.13;;;;;;;;;;6272814;28;20087;-65
2023/09/25 04:38:44;;;;;;;15.10;8.10;;;;;;;;;;6289897;28;20047;-65
2023/09/25 04:41:46;;;;;;;11.45;7.78;;;;;;;;;;6290710;28;20037;-66
2023/09/25 04:44:48;;;;;;;12.95;8.13;;;;;;;;;;6290752;28;20538;-65
2023/09/25 04:47:53;;;;;;;18.20;9.05;;;;;;;;;;6291538;28;20114;-65
2023/09/25 04:50:53;;;;;;;18.48;8.88;;;;;;;;;;6290035;28;20055;-64
2023/09/25 04:53:54;;;;;;;15.73;9.10;;;;;;;;;;6288292;28;20036;-65
2023/09/25 04:56:54;;;;;;;16.23;8.70;;;;;;;;;;6291599;28;20044;-65
2023/09/25 04:59:55;;;;;;;13.20;8.88;;;;;;;;;;6290700;28;20488;-65
2023/09/25 05:02:56;;;;;;;15.30;8.20;;;;;;;;;;6278647;28;20079;-70
2023/09/25 05:05:56;;;;;;;14.75;8.93;;;;;;;;;;6283267;28;20511;-65
2023/09/25 05:08:57;;;;;;;17.65;8.73;;;;;;;;;;6277230;28;20076;-64
2023/09/25 05:11:57;;;;;;;15.82;9.00;;;;;;;;;;6291120;28;20418;-66
2023/09/25 05:15:00;;;;;;;17.88;9.32;;;;;;;;;;6291803;28;20034;-63
2023/09/25 05:18:02;;;;;;;17.13;8.73;;;;;;;;;;6290392;28;20047;-72
2023/09/25 05:21:03;;;;;;;13.63;8.40;;;;;;;;;;6290687;28;20036;-76
2023/09/25 05:24:04;;;;;;;15.57;8.98;;;;;;;;;;6281547;28;20419;-77
2023/09/25 05:27:05;;;;;;;14.27;8.87;;;;;;;;;;6285135;28;20536;-64
2023/09/25 05:30:10;;;;;;;16.80;9.55;;;;;;;;;;6282018;28;20044;-64
2023/09/25 05:33:11;;;;;;;14.43;8.60;;;;;;;;;;6280951;28;20078;-64
2023/09/25 05:36:11;;;;;;;16.23;9.02;;;;;;;;;;6289348;28;20036;-64
2023/09/25 05:39:13;;;;;;;16.90;9.25;;;;;;;;;;6285361;28;20041;-64
2023/09/25 05:42:13;;;;;;;15.48;8.85;;;;;;;;;;6281535;28;20144;-64
2023/09/25 05:45:15;;;;;;;17.95;8.98;;;;;;;;;;6288000;28;20547;-65
2023/09/25 05:48:15;;;;;;;13.48;8.65;;;;;;;;;;6285215;28;20064;-65
2023/09/25 05:51:16;;;;;;;14.48;9.07;;;;;;;;;;6287528;28;20757;-64
2023/09/25 05:54:17;;;;;;;16.75;8.85;;;;;;;;;;6289605;28;20041;-64
2023/09/25 05:57:18;;;;;;;14.68;9.05;;;;;;;;;;6289271;28;20382;-65
2023/09/25 06:00:18;;;;;;;14.30;8.93;;;;;;;;;;6288601;28;20069;-64
2023/09/25 06:03:19;;;;;;;16.58;9.13;;;;;;;;;;6287446;28;20048;-65
2023/09/25 06:06:20;;;;;;;15.77;8.98;;;;;;;;;;6268709;28;20480;-63
2023/09/25 06:09:21;;;;;;;16.52;9.13;;;;;;;;;;6286964;28;20056;-64
2023/09/25 06:12:23;;;;;;;17.92;9.65;;;;;;;;;;6286997;28;20412;-66
2023/09/25 06:15:24;;;;;;;17.85;10.10;;;;;;;;;;6289609;28;20102;-64
2023/09/25 06:18:24;;;;;;;16.63;10.13;;;;;;;;;;6289383;28;20048;-63
2023/09/25 06:21:25;;;;;;;19.13;9.82;;;;;;;;;;6289260;28;20045;-64
2023/09/25 06:24:25;;;;;;;15.75;9.80;;;;;;;;;;6289812;28;20578;-63
2023/09/25 06:27:27;;;;;;;19.85;10.43;;;;;;;;;;6270096;28;20090;-63
2023/09/25 06:30:30;;;;;;;18.88;11.00;;;;;;;;;;6288858;28;20090;-63
2023/09/25 06:33:30;;;;;;;20.13;11.10;;;;;;;;;;6287726;28;20074;-63
2023/09/25 06:36:31;;;;;;;20.90;10.98;;;;;;;;;;6289228;28;20468;-63
2023/09/25 06:39:33;;;;;;;19.08;10.70;;;;;;;;;;6289024;28;20048;-63
2023/09/25 06:42:34;;;;;;;19.65;10.93;;;;;;;;;;6288637;28;20045;-63
2023/09/25 06:45:35;;;;;;;19.77;11.07;;;;;;;;;;6289250;28;20503;-63
2023/09/25 06:48:35;;;;;;;16.00;10.20;;;;;;;;;;6287151;28;20051;-63
2023/09/25 06:51:36;;;;;;;21.00;10.60;;;;;;;;;;6287601;28;20052;-64
2023/09/25 06:54:36;;;;;;;22.25;11.02;;;;;;;;;;6288573;28;20044;-63
2023/09/25 06:57:37;;;;;;;21.80;11.63;;;;;;;;;;6287337;28;20135;-63
2023/09/25 07:00:38;;;;;;;20.92;12.65;;;;;;;;;;6287443;28;20036;-64
2023/09/25 07:03:39;;;;;;;21.58;13.10;;;;;;;;;;6286564;28;20591;-63
2023/09/25 07:06:40;;;;;;;20.52;12.30;;;;;;;;;;6287369;28;20040;-64
2023/09/25 07:09:41;;;;;;;23.17;12.73;;;;;;;;;;6288163;28;20135;-63
2023/09/25 07:12:41;;;;;;;23.42;13.52;;;;;;;;;;6287549;28;21637;-63
2023/09/25 07:15:43;;;;;;;20.13;12.48;;;;;;;;;;6288263;28;20048;-62
2023/09/25 07:18:46;;;;;;;26.00;13.05;;;;;;;;;;6287200;28;20067;-63
2023/09/25 07:21:47;;;;;;;22.77;12.88;;;;;;;;;;6287095;28;20048;-63
2023/09/25 07:24:48;;;;;;;22.75;12.25;;;;;;;;;;6287764;28;20040;-64
2023/09/25 07:27:49;;;;;;;24.25;13.15;;;;;;;;;;6287791;28;20166;-63
2023/09/25 07:30:49;;;;;;;29.05;12.35;;;;;;;;;;6287514;28;20045;-62
2023/09/25 07:33:52;;;;;;;24.42;13.55;;;;;;;;;;6286293;28;20040;-64
2023/09/25 07:36:53;;;;;;;21.15;12.55;;;;;;;;;;6288192;28;20044;-63
2023/09/25 07:39:54;;;;;;;21.52;12.45;;;;;;;;;;6287421;28;20051;-64
2023/09/25 07:42:54;;;;;;;20.88;12.20;;;;;;;;;;6287681;28;20423;-64
2023/09/25 07:45:55;;;;;;;22.65;12.65;;;;;;;;;;6288019;28;20090;-63
2023/09/25 07:48:58;;;;;;;22.00;13.18;;;;;;;;;;6287445;28;20392;-63
2023/09/25 07:52:00;;;;;;;24.15;13.85;;;;;;;;;;6287314;28;20032;-63
2023/09/25 07:55:00;;;;;;;23.77;13.80;;;;;;;;;;6287420;28;20118;-63
2023/09/25 07:58:04;;;;;;;25.98;14.23;;;;;;;;;;6287485;28;20044;-62
2023/09/25 08:01:08;;;;;;;23.00;12.98;;;;;;;;;;6285713;28;20071;-62
2023/09/25 08:04:09;;;;;;;24.25;13.70;;;;;;;;;;6286825;28;20544;-63
2023/09/25 08:07:10;;;;;;;25.95;13.70;;;;;;;;;;6287764;28;20348;-62
2023/09/25 08:10:12;;;;;;;24.03;13.47;;;;;;;;;;6284996;28;20087;-63
2023/09/25 08:13:13;;;;;;;24.15;13.80;;;;;;;;;;6283629;28;20546;-62
2023/09/25 08:16:16;;;;;;;25.50;13.75;;;;;;;;;;6289252;28;20049;-62
2023/09/25 08:19:18;;;;;;;24.67;13.73;;;;;;;;;;6285678;28;20071;-63
2023/09/25 08:22:20;;;;;;;23.27;13.05;;;;;;;;;;6283778;28;20057;-63
2023/09/25 08:25:22;;;;;;;24.73;13.35;;;;;;;;;;6287196;28;20072;-63
2023/09/25 08:28:23;;;;;;;27.17;14.25;;;;;;;;;;6275015;28;20677;-63
2023/09/25 08:31:24;;;;;;;25.67;14.43;;;;;;;;;;6287182;28;20093;-62
2023/09/25 08:34:25;;;;;;;22.88;12.85;;;;;;;;;;6287052;28;20492;-62
2023/09/25 08:37:25;;;;;;;24.67;13.02;;;;;;;;;;6283726;28;20044;-62
2023/09/25 08:40:29;;;;;;;22.35;12.80;;;;;;;;;;6285945;28;20044;-62
2023/09/25 08:43:30;;;;;;;23.27;13.02;;;;;;;;;;6283495;28;20052;-62
2023/09/25 08:46:31;;;;;;;20.42;11.88;;;;;;;;;;6286987;28;20139;-62
2023/09/25 08:49:32;;;;;;;24.55;12.02;;;;;;;;;;6286256;28;20068;-62
2023/09/25 08:52:33;;;;;;;23.55;12.27;;;;;;;;;;6285662;28;20453;-65
2023/09/25 08:55:34;;;;;;;24.67;12.85;;;;;;;;;;6288156;28;20048;-62
2023/09/25 08:58:35;;;;;;;21.73;12.07;;;;;;;;;;6286945;28;20041;-62
2023/09/25 09:01:36;;;;;;;21.70;11.35;;;;;;;;;;6284956;28;20045;-63
2023/09/25 09:04:36;;;;;;;19.65;11.50;;;;;;;;;;6285616;28;20036;-63
2023/09/25 09:07:39;;;;;;;17.65;10.18;;;;;;;;;;6286274;28;20470;-63
2023/09/25 09:10:40;;;;;;;20.15;10.85;;;;;;;;;;6285121;28;20452;-63
2023/09/25 09:13:44;;;;;;;20.10;11.27;;;;;;;;;;6285714;28;20406;-63
2023/09/25 09:16:57;;;;;;;21.67;11.40;;;;;;;;;;6289125;28;20058;-62
2023/09/25 09:19:58;;;;;;;21.33;11.52;;;;;;;;;;6288774;28;20040;-63
2023/09/25 09:22:59;;;;;;;16.05;10.13;;;;;;;;;;6290996;28;20186;-62
2023/09/25 09:25:59;;;;;;;19.58;10.40;;;;;;;;;;6290267;28;20036;-64
2023/09/25 09:29:00;;;;;;;17.38;10.05;;;;;;;;;;6289154;28;20072;-63
2023/09/25 09:32:00;;;;;;;17.33;10.37;;;;;;;;;;6290013;28;20068;-62
2023/09/25 09:35:05;;;;;;;19.25;10.60;;;;;;;;;;6287480;28;20139;-63
2023/09/25 09:38:07;;;;;;;13.80;8.25;;;;;;;;;;6291172;28;20049;-62
2023/09/25 09:41:09;;;;;;;16.00;8.07;;;;;;;;;;6291217;28;20074;-63
2023/09/25 09:44:09;;;;;;;12.43;7.35;;;;;;;;;;6289386;28;20037;-62
2023/09/25 09:47:12;;;;;;;14.67;7.90;;;;;;;;;;6292074;28;20442;-62
2023/09/25 09:50:18;;;;;;;14.50;7.75;;;;;;;;;;6290450;28;20110;-62
2023/09/25 09:53:18;;;;;;;16.77;7.97;;;;;;;;;;6289338;28;20090;-62
2023/09/25 09:56:20;;;;;;;16.42;8.75;;;;;;;;;;6289906;28;20052;-63
2023/09/25 09:59:21;;;;;;;18.25;9.00;;;;;;;;;;6276916;28;20052;-62
2023/09/25 10:02:22;;;;;;;16.02;8.60;;;;;;;;;;6289927;28;20044;-62
2023/09/25 10:05:22;;;;;;;17.20;8.53;;;;;;;;;;6289012;28;20052;-62
2023/09/25 10:08:23;;;;;;;19.37;8.97;;;;;;;;;;6290027;28;20075;-61
2023/09/25 10:11:24;;;;;;;19.27;9.33;;;;;;;;;;6289968;28;20457;-62
2023/09/25 10:14:25;;;;;;;16.13;8.87;;;;;;;;;;6288983;28;20490;-62
2023/09/25 10:17:32;;;;;;;;;;;;;;;;;;6290211;28;20084;-62
2023/09/25 10:20:40;;;;;;;15.82;9.18;;;;;;;;;;6289379;28;19993;-62
2023/09/25 10:23:45;;;;;;;16.60;9.05;;;;;;;;;;6287945;28;20032;-62
2023/09/25 10:26:47;;;;;;;17.75;8.60;;;;;;;;;;6288197;28;20075;-62
2023/09/25 10:30:14;;;;;;;16.42;9.18;;;;;;;;;;6289434;28;20041;-63
2023/09/25 10:33:16;;;;;;;19.27;9.85;;;;;;;;;;6289023;28;20072;-63
2023/09/25 10:36:17;;;;;;;16.17;9.40;;;;;;;;;;6287740;28;20381;-62
2023/09/25 10:39:17;;;;;;;17.15;9.15;;;;;;;;;;6287379;28;20060;-62
2023/09/25 10:42:19;;;;;;;15.75;9.45;;;;;;;;;;6289017;28;20071;-63
2023/09/25 10:45:22;;;;;;;18.57;9.00;;;;;;;;;;6288567;28;20045;-62
2023/09/25 10:48:27;;;;;;;13.90;8.88;;;;;;;;;;6274386;28;20399;-61
2023/09/25 10:51:28;;;;;;;16.83;9.52;;;;;;;;;;6287520;28;20633;-62
2023/09/25 10:54:28;;;;;;;15.20;8.95;;;;;;;;;;6289088;28;20079;-62
2023/09/25 10:57:30;;;;;;;14.82;8.45;;;;;;;;;;6286769;28;20659;-62
2023/09/25 11:00:32;;;;;;;17.90;9.30;;;;;;;;;;6288914;28;21084;-63
2023/09/25 11:03:35;;;;;;;16.83;9.60;;;;;;;;;;6288686;28;20082;-64
2023/09/25 11:06:36;;;;;;;18.90;10.27;;;;;;;;;;6288574;28;20128;-64
2023/09/25 11:09:37;;;;;;;16.15;9.40;;;;;;;;;;6289041;28;20055;-64
2023/09/25 11:12:40;;;;;;;16.15;8.90;;;;;;;;;;6272732;28;20042;-65
2023/09/25 11:15:41;;;;;;;17.85;9.75;;;;;;;;;;6287918;28;20044;-61
2023/09/25 11:18:42;;;;;;;17.98;9.63;;;;;;;;;;6287571;28;20051;-64
2023/09/25 11:21:46;;;;;;;23.77;10.97;;;;;;;;;;6288180;28;20045;-64
2023/09/25 11:24:54;;;;;;;20.52;10.65;;;;;;;;;;6286706;28;20059;-63
2023/09/25 11:27:56;;;;;;;21.05;10.48;;;;;;;;;;6286507;28;20442;-64
2023/09/25 11:30:56;;;;;;;19.40;10.20;;;;;;;;;;6287851;28;20047;-64
2023/09/25 11:33:57;;;;;;;21.58;10.73;;;;;;;;;;6285112;28;20041;-63
2023/09/25 11:36:58;;;;;;;19.67;10.80;;;;;;;;;;6286843;28;20067;-64
2023/09/25 11:39:58;;;;;;;18.93;10.07;;;;;;;;;;6286726;28;20407;-64
2023/09/25 11:43:00;;;;;;;18.30;10.10;;;;;;;;;;6286903;28;20032;-62
2023/09/25 11:46:01;;;;;;;19.55;10.13;;;;;;;;;;6274681;28;20495;-63
2023/09/25 11:49:01;;;;;;;19.43;10.63;;;;;;;;;;6287707;28;20041;-64
2023/09/25 11:52:03;;;;;;;19.05;10.27;;;;;;;;;;6285860;28;20052;-63
2023/09/25 11:55:04;;;;;;;16.55;9.82;;;;;;;;;;6285987;28;20041;-63
2023/09/25 11:58:08;;;;;;;17.75;10.73;;;;;;;;;;6284686;28;20483;-63
2023/09/25 12:01:09;;;;;;;26.33;10.98;;;;;;;;;;6287317;28;20504;-63
2023/09/25 12:04:09;;;;;;;19.73;10.67;;;;;;;;;;6269973;28;20047;-62
2023/09/25 12:07:10;;;;;;;19.63;10.97;;;;;;;;;;6287177;28;20535;-63
2023/09/25 12:10:18;;;;;;;18.83;10.60;;;;;;;;;;6286893;28;20048;-62
2023/09/25 12:13:18;;;;;;;18.65;10.85;;;;;;;;;;6287982;28;20119;-62
2023/09/25 12:16:19;;;;;;;22.13;10.83;;;;;;;;;;6287728;28;20058;-62
2023/09/25 12:19:19;;;;;;;21.23;10.60;;;;;;;;;;6285743;28;20194;-62
2023/09/25 12:22:20;;;;;;;19.63;10.27;;;;;;;;;;6287442;28;20466;-62
2023/09/25 12:25:21;;;;;;;20.90;10.30;;;;;;;;;;6286268;28;20048;-62
2023/09/25 12:28:22;;;;;;;24.40;11.27;;;;;;;;;;6283948;28;20060;-63
2023/09/25 12:31:23;;;;;;;18.90;11.07;;;;;;;;;;6269515;28;20102;-63
2023/09/25 12:34:23;;;;;;;19.80;11.35;;;;;;;;;;6287531;28;20564;-64
2023/09/25 12:37:25;;;;;;;20.77;10.95;;;;;;;;;;6284889;28;20045;-62
2023/09/25 12:40:25;;;;;;;18.30;10.82;;;;;;;;;;6286360;28;20040;-62
2023/09/25 12:43:26;;;;;;;18.00;10.70;;;;;;;;;;6286457;28;20537;-62
2023/09/25 12:46:27;;;;;;;21.03;10.53;;;;;;;;;;6283962;28;20125;-62
2023/09/25 12:49:28;;;;;;;20.33;10.60;;;;;;;;;;6284988;28;20059;-63
2023/09/25 12:52:30;;;;;;;22.00;11.53;;;;;;;;;;6290541;28;20052;-62
2023/09/25 12:55:33;;;;;;;21.55;11.27;;;;;;;;;;6290685;28;20415;-63
2023/09/25 12:58:33;;;;;;;18.58;10.77;;;;;;;;;;6291074;28;20395;-62
2023/09/25 13:01:35;;;;;;;23.27;11.50;;;;;;;;;;6292304;28;20109;-63
2023/09/25 13:04:35;;;;;;;20.33;11.33;;;;;;;;;;6291538;28;20142;-63
2023/09/25 13:07:36;;;;;;;22.67;11.00;;;;;;;;;;6290461;28;20526;-64
2023/09/25 13:10:37;;;;;;;23.77;11.27;;;;;;;;;;6291534;28;20128;-62
2023/09/25 13:13:37;;;;;;;19.13;11.30;;;;;;;;;;6290846;28;20182;-64
2023/09/25 13:16:38;;;;;;;17.47;10.67;;;;;;;;;;6288967;28;20098;-63
2023/09/25 13:19:41;;;;;;;19.95;10.45;;;;;;;;;;6289342;28;20521;-64
2023/09/25 13:22:42;;;;;;;19.73;11.07;;;;;;;;;;6291102;28;20083;-63
2023/09/25 13:25:43;;;;;;;26.23;11.18;;;;;;;;;;6292185;28;20052;-63
2023/09/25 13:28:44;;;;;;;21.27;13.10;;;;;;;;;;6290205;28;20102;-64
2023/09/25 13:31:45;;;;;;;21.53;11.50;;;;;;;;;;6290697;28;20115;-65
2023/09/25 13:34:45;;;;;;;17.93;10.20;;;;;;;;;;6290496;28;20044;-62
2023/09/25 13:37:46;;;;;;;20.63;10.50;;;;;;;;;;6289546;28;20037;-62
2023/09/25 13:40:47;;;;;;;21.77;10.80;;;;;;;;;;6290730;28;20403;-62
2023/09/25 13:43:48;;;;;;;20.70;11.47;;;;;;;;;;6290543;28;20745;-62
2023/09/25 13:46:54;;;;;;;18.83;10.90;;;;;;;;;;6290462;28;20033;-62
2023/09/25 13:49:55;;;;;;;21.10;10.68;;;;;;;;;;6290257;28;20051;-62
2023/09/25 13:52:55;;;;;;;19.03;10.23;;;;;;;;;;6290590;28;20052;-62
2023/09/25 13:55:56;;;;;;;18.33;10.17;;;;;;;;;;6290945;28;20082;-62
2023/09/25 13:58:56;;;;;;;16.73;10.13;;;;;;;;;;6289354;28;20048;-62
2023/09/25 14:01:57;;;;;;;16.60;8.93;;;;;;;;;;6289466;28;20399;-62
2023/09/25 14:04:57;;;;;;;21.30;10.13;;;;;;;;;;6286752;28;20044;-63
2023/09/25 14:07:58;;;;;;;27.27;12.60;;;;;;;;;;6290075;28;20132;-63
2023/09/25 14:11:00;;;;;;;20.63;10.00;;;;;;;;;;6288855;28;20048;-63
2023/09/25 14:14:03;;;;;;;18.67;10.82;;;;;;;;;;6289018;28;20040;-62
2023/09/25 14:17:03;;;;;;;22.42;10.65;;;;;;;;;;6288799;28;20487;-62
2023/09/25 14:20:05;;;;;;;20.43;10.50;;;;;;;;;;6288654;28;20140;-63
2023/09/25 14:23:06;;;;;;;17.92;9.82;;;;;;;;;;6280027;28;20040;-63
2023/09/25 14:26:06;;;;;;;20.40;10.47;;;;;;;;;;6280078;28;20394;-63
2023/09/25 14:29:07;;;;;;;25.03;10.70;;;;;;;;;;6282022;28;20695;-63
2023/09/25 14:32:08;;;;;;;19.30;11.10;;;;;;;;;;6287554;28;20459;-64
2023/09/25 14:35:09;;;;;;;19.23;11.33;;;;;;;;;;6277396;28;20468;-63
2023/09/25 14:38:10;;;;;;;21.90;11.63;;;;;;;;;;6286560;28;20046;-65
2023/09/25 14:41:10;;;;;;;22.80;12.37;;;;;;;;;;6271363;28;20032;-63
2023/09/25 14:44:11;;;;;;;23.83;11.47;;;;;;;;;;6282633;28;20045;-63
2023/09/25 14:47:12;;;;;;;27.33;12.23;;;;;;;;;;6286537;28;20044;-63
2023/09/25 14:50:12;;;;;;;21.63;11.73;;;;;;;;;;6285188;28;20210;-64
2023/09/25 14:53:13;;;;;;;23.10;11.90;;;;;;;;;;6288510;28;20074;-63
2023/09/25 14:56:14;;;;;;;23.20;11.33;;;;;;;;;;6285475;28;20499;-65
2023/09/25 14:59:17;;;;;;;27.30;12.38;;;;;;;;;;6283964;28;20051;-64
2023/09/25 15:02:18;;;;;;;22.50;11.87;;;;;;;;;;6289009;28;20055;-67
2023/09/25 15:05:19;;;;;;;24.20;12.03;;;;;;;;;;6279853;28;20060;-63
2023/09/25 15:08:23;;;;;;;25.03;12.07;;;;;;;;;;6288587;28;20176;-63
2023/09/25 15:11:23;;;;;;;25.63;12.35;;;;;;;;;;6283957;28;20098;-65
2023/09/25 15:14:24;;;;;;;24.37;12.63;;;;;;;;;;6288589;28;20048;-65
2023/09/25 15:17:28;;;;;;;26.87;12.70;;;;;;;;;;6282735;28;20506;-64
2023/09/25 15:20:28;;;;;;;26.67;13.50;;;;;;;;;;6284068;28;20057;-63
2023/09/25 15:23:29;;;;;;;25.97;12.30;;;;;;;;;;6268105;28;20558;-70
2023/09/25 15:26:30;;;;;;;24.90;12.07;;;;;;;;;;6282798;28;20135;-64
2023/09/25 15:29:30;;;;;;;24.67;12.03;;;;;;;;;;6287370;28;20097;-63
2023/09/25 15:32:31;;;;;;;25.63;12.73;;;;;;;;;;6293494;28;20052;-65
2023/09/25 15:35:32;;;;;;;27.20;12.73;;;;;;;;;;6286253;28;20052;-64
2023/09/25 15:38:32;;;;;;;24.07;12.00;;;;;;;;;;6286334;28;20044;-69
2023/09/25 15:41:34;;;;;;;25.80;13.07;;;;;;;;;;6294974;28;20052;-65
2023/09/25 15:44:34;;;;;;;26.17;12.13;;;;;;;;;;6287185;28;20052;-63
2023/09/25 15:47:35;;;;;;;28.17;13.47;;;;;;;;;;6268049;28;20756;-62
2023/09/25 15:50:36;;;;;;;24.80;12.57;;;;;;;;;;6291366;28;20117;-63
2023/09/25 15:53:36;;;;;;;24.67;11.87;;;;;;;;;;6289001;28;20601;-63
2023/09/25 15:56:37;;;;;;;24.53;12.40;;;;;;;;;;6289201;28;20048;-63
2023/09/25 15:59:38;;;;;;;28.13;12.20;;;;;;;;;;6266066;28;20045;-63
2023/09/25 16:02:38;;;;;;;23.83;12.43;;;;;;;;;;6285648;28;20055;-63
2023/09/25 16:05:39;;;;;;;26.77;12.37;;;;;;;;;;6288914;28;20052;-66
2023/09/25 16:08:40;;;;;;;22.07;12.53;;;;;;;;;;6290671;28;20048;-62
2023/09/25 16:11:41;;;;;;;25.10;13.13;;;;;;;;;;6288624;28;20313;-62
2023/09/25 16:14:44;;;;;;;24.93;13.30;;;;;;;;;;6283850;28;20052;-62
2023/09/25 16:17:45;;;;;;;27.83;12.30;;;;;;;;;;6290235;28;20040;-62
2023/09/25 16:20:45;;;;;;;21.33;12.47;;;;;;;;;;6287888;28;21049;-65
2023/09/25 16:23:46;;;;;;;24.27;12.47;;;;;;;;;;6291493;28;20051;-64
2023/09/25 16:26:47;;;;;;;22.43;12.23;;;;;;;;;;6290951;28;20560;-64
2023/09/25 16:29:47;;;;;;;22.97;12.93;;;;;;;;;;6287204;28;20040;-65
2023/09/25 16:32:48;;;;;;;22.60;12.73;;;;;;;;;;6293923;28;20045;-65
2023/09/25 16:35:48;;;;;;;23.43;12.77;;;;;;;;;;6290192;28;20540;-64
2023/09/25 16:38:50;;;;;;;25.73;12.63;;;;;;;;;;6285685;28;20502;-64
2023/09/25 16:41:51;;;;;;;27.40;12.93;;;;;;;;;;6294976;28;20063;-65
2023/09/25 16:44:51;;;;;;;22.35;12.18;;;;;;;;;;6288480;28;20143;-64
2023/09/25 16:47:52;;;;;;;26.77;13.37;;;;;;;;;;6288217;28;20044;-65
2023/09/25 16:50:53;;;;;;;21.30;12.20;;;;;;;;;;6289265;28;20125;-65
2023/09/25 16:53:53;;;;;;;24.63;12.20;;;;;;;;;;6289192;28;20489;-65
2023/09/25 16:56:54;;;;;;;24.00;12.83;;;;;;;;;;6288591;28;20542;-66
2023/09/25 16:59:55;;;;;;;26.23;13.83;;;;;;;;;;6291032;28;20036;-65
2023/09/25 17:02:55;;;;;;;30.60;15.10;;;;;;;;;;6289300;28;20044;-67
2023/09/25 17:05:56;;;;;;;39.10;16.03;;;;;;;;;;6289078;28;20056;-64
2023/09/25 17:08:57;;;;;;;33.60;16.27;;;;;;;;;;6294278;28;20143;-66
2023/09/25 17:11:57;;;;;;;31.20;15.10;;;;;;;;;;6288582;28;20106;-66
2023/09/25 17:14:58;;;;;;;31.93;15.30;;;;;;;;;;6266210;28;20044;-67
2023/09/25 17:17:59;;;;;;;26.00;13.30;;;;;;;;;;6286372;28;20048;-65
2023/09/25 17:21:00;;;;;;;28.13;14.83;;;;;;;;;;6289169;28;20093;-64
2023/09/25 17:24:00;;;;;;;26.80;13.73;;;;;;;;;;6288490;28;20697;-64
2023/09/25 17:27:01;;;;;;;24.73;13.17;;;;;;;;;;6266108;28;20136;-64
2023/09/25 17:30:02;;;;;;;27.30;13.33;;;;;;;;;;6283339;28;20052;-65
2023/09/25 17:33:04;;;;;;;;;;;;;;;;;;6284626;28;20518;-64
2023/09/25 17:36:04;;;;;;;23.52;13.05;;;;;;;;;;6286712;28;19924;-65
2023/09/25 17:39:05;;;;;;;25.33;13.30;;;;;;;;;;6286271;28;20051;-64
2023/09/25 17:42:06;;;;;;;23.33;13.15;;;;;;;;;;6272712;28;20552;-64
2023/09/25 17:45:07;;;;;;;26.17;13.10;;;;;;;;;;6284151;28;20063;-65